Weather observations for the past three days for
Springfield-Branson National Airport
Metric (Imperial)
Date Time (cdt) Wind (kph) Vis. (km) Weather Sky Cond. Temperature (ºC) Relative Humidity Wind Chill (°C) Heat Index (°C) Pressure Precipitation (cm)
Air Dwpt 6 hour altimeter (cm) sea level (mb) 1 hr 3 hr 6 hr
Max. Min.
10 08:52 NE 22 16.09 Fair CLR 17.2 10.6 65% 76.35 1017.3
10 07:52 NE 24 16.09 Fair CLR 16.1 10.6 70% 76.28 1016.1
10 06:52 NE 15 16.09 Fair CLR 15 11.1 17.2 13.9 78% 76.2 1015.1
10 05:52 NE 13 16.09 Fair CLR 14.4 10.6 78% 76.15 1014.1
10 04:52 Calm 16.09 Overcast OVC110 16.1 10 67% 76.1 1013.3
10 03:52 N 6 16.09 Fair CLR 16.1 10.6 70% 76.05 1012.9
10 02:52 NE 6 16.09 Fair CLR 15 11.1 78% 76.05 1012.8
10 01:52 Calm 16.09 Fair CLR 15.6 10.6 72% 76.02 1012.5
10 00:52 Calm 16.09 Fair CLR 17.8 10 26.1 16.7 60% 76.05 1012.8
09 23:52 SW 7 16.09 Fair CLR 18.9 10 56% 75.97 1011.7
09 22:52 S 7 16.09 Fair CLR 18.3 9.4 56% 75.92 1011.2
09 21:52 SW 7 16.09 Fair CLR 17.2 9.4 60% 75.92 1011.1
09 20:52 Calm 16.09 Fair CLR 18.9 10 56% 75.82 1009.9
09 19:52 SW 6 16.09 Fair CLR 23.3 9.4 41% 75.77 1009.2
09 18:52 W 7 16.09 Fair CLR 25.6 7.8 27.2 25 32% 26 75.74 1009.0
09 17:52 SW 9 16.09 Fair CLR 26.7 7.2 29% 26 75.74 1008.9
09 16:52 W 11 16.09 Fair CLR 27.2 7.2 28% 26 75.74 1008.9
09 15:52 Vrbl 7 16.09 Fair CLR 27.2 6.1 26% 26 75.77 1009.2
09 14:52 NW 17 16.09 Fair CLR 26.7 7.2 29% 26 75.82 1009.8
09 13:52 Vrbl 11 16.09 Fair CLR 26.1 6.1 28% 26 75.82 1010.2
09 12:52 NW 15 16.09 Fair CLR 25.6 8.9 26.1 12.8 35% 26 75.82 1010.0
09 11:52 W 17 16.09 Fair CLR 24.4 10.6 42% 25 75.84 1010.5
09 10:52 W 11 16.09 Fair CLR 23.3 12.8 52% 75.84 1010.4
09 09:52 W 11 16.09 Fair CLR 21.1 13.3 61% 75.84 1010.3
09 08:52 W 6 16.09 Fair CLR 17.8 13.9 78% 75.82 1010.1
09 07:52 SW 6 14.48 Fair CLR 14.4 13.3 93% 75.79 1010.0
09 06:52 Calm 14.48 Fair CLR 12.8 12.2 13.3 10.6 96% 75.77 1009.6
09 05:52 SW 6 14.48 Fair CLR 11.7 11.1 96% 75.77 1009.4
09 04:52 SW 7 16.09 Fair CLR 11.7 11.1 96% 75.74 1009.1
09 03:52 SW 6 16.09 Fair CLR 12.2 11.7 97% 75.74 1009.0
09 02:52 SW 11 16.09 Fair CLR 12.8 11.7 93% 75.74 1009.0
09 01:52 SW 11 14.48 Fair CLR 11.7 11.7 100% 75.74 1009.1
09 00:52 Calm 16.09 Fair CLR 13.3 12.8 18.9 12.8 97% 75.77 1009.3 0.2
08 23:52 SW 7 14.48 Fair CLR 12.8 12.8 100% 75.77 1009.3
08 22:52 Calm 16.09 Overcast FEW036 BKN055 OVC070 15 13.3 90% 75.77 1009.3 0.2
08 21:52 N 19 16.09 Overcast BKN080 OVC100 16.7 13.3 80% 75.74 1009.1
08 20:52 SW 15 16.09 Mostly Cloudy BKN090 18.9 11.1 61% 75.57 1006.7
08 19:52 S 15 16.09 Fair CLR 17.8 11.1 65% 75.51 1006.1
08 18:52 S 11 16.09 A Few Clouds FEW028 FEW090 18.9 10.6 25 18.9 59% 75.54 1006.4
08 17:52 W 13 16.09 Light Rain FEW075 OVC090 21.7 9.4 46% 75.64 1008.0
08 16:52 S 20 G 33 16.09 Partly Cloudy SCT100 23.3 8.9 40% 75.59 1007.3
08 15:52 S 24 16.09 Fair CLR 24.4 10.6 42% 25 75.62 1007.2
08 14:52 S 22 G 35 16.09 Fair CLR 23.9 10 42% 25 75.69 1008.4
08 13:52 SW 19 16.09 Fair CLR 23.3 11.1 46% 75.77 1009.4
08 12:52 SW 22 16.09 Fair CLR 21.1 10.6 21.7 10.6 51% 75.84 1010.5
08 11:52 S 22 16.09 Fair CLR 21.1 10.6 51% 75.92 1011.5
08 10:52 SW 22 G 41 16.09 Fair CLR 20 9.4 51% 75.95 1011.9
08 09:52 SW 24 G 35 16.09 Fair CLR 18.3 10 59% 76 1012.6
08 08:52 SW 24 16.09 Fair CLR 15.6 8.9 65% 76.02 1013.0
08 07:52 S 20 16.09 Fair CLR 12.8 7.2 69% 76 1012.8
08 06:52 S 19 16.09 Fair CLR 10.6 6.7 11.1 9.4 77% 75.97 1012.5
08 05:52 S 17 16.09 Fair CLR 9.4 6.7 83% 7 75.95 1012.1
08 04:52 S 20 16.09 Fair CLR 10 6.7 80% 8 75.97 1012.3
08 03:52 S 17 16.09 Fair CLR 10 6.1 77% 8 75.97 1012.4
08 02:52 S 19 16.09 Fair CLR 10.6 6.1 74% 76 1012.7
08 01:52 S 19 16.09 Fair CLR 11.1 6.1 72% 76.02 1013.2
08 00:52 S 11 16.09 Fair CLR 10.6 6.1 17.8 9.4 74% 76.07 1013.8
07 23:52 S 11 16.09 Fair CLR 10 6.1 77% 9 76.07 1014.0
07 22:52 S 7 16.09 Fair CLR 11.7 5.6 66% 76.12 1014.6
07 21:52 S 7 16.09 Fair CLR 12.2 5.6 64% 76.12 1014.7
07 20:52 SW 7 16.09 Fair CLR 12.8 5.6 62% 76.05 1013.7
07 19:52 SW 11 16.09 Fair CLR 15.6 5.6 52% 76.02 1013.4
07 18:52 SW 17 16.09 Fair CLR 17.8 5 19.4 16.1 43% 76.02 1013.4
07 17:52 W 19 16.09 Fair CLR 18.9 5 40% 76.05 1013.7
07 16:52 W 17 G 31 16.09 A Few Clouds FEW060 18.9 4.4 39% 76.1 1014.2
07 15:52 SW 11 16.09 Fair CLR 18.3 3.9 39% 76.12 1014.8
07 14:52 SW 7 G 31 16.09 Fair CLR 17.8 2.2 35% 76.2 1015.7
07 13:52 SW 17 16.09 A Few Clouds FEW070 17.8 2.2 35% 76.23 1016.1
07 12:52 SW 6 G 30 16.09 Fair CLR 16.7 1.1 17.2 6.1 35% 76.28 1016.8
07 11:52 SW 13 16.09 Fair CLR 16.1 0.6 35% 76.35 1017.7
07 10:52 W 13 16.09 Fair CLR 15 1.1 39% 76.38 1018.2
07 09:52 S 13 16.09 Fair CLR 13.9 1.1 42% 76.4 1018.3
Date Time (cdt) Wind (kph) Vis. (km) Weather Sky Cond. Air Dwpt Max. Min. Relative Humidity Wind Chill (°C) Heat Index (°C) altimeter (cm) sea level (mb) 1 hr 3 hr 6 hr
6 hour
Temperature (ºC) Pressure Precipitation (cm)